Airfield :
LOGIN :

Register | Disclaimer

   EN    FR    IT 

 










Legend :    VFR   Marginal VFR   IFR   Intensive IFR   Very Intensive IFR
Visi :
Ceiling :
>= 8 km
>= 3000ft
5 to 8 km
1000 to 3000 ft
1500m to 5 km
500 to 1000 ft
800 to 1500m
200 to 500 ft
< 800m
< 200 ft
Symbols :   Thunderstorms  Fog  Heavy snow  Heavy precipitations  Wind > 20 kt
SIGMETs :     Misc.  Thunderstorms  Icing  Turbulence  Mountain Waves  Volcanic Ashes







- Airport Elevation : 215 ft
- IATA code : ABZ
- Download approach charts


EGPD - Aberdeen / Dyce

CURRENT METAR :
  • 210550Z AUTO VRB03KT 9999 NCD 02/01 Q1012 NOSIG

EXPIRED METARs :
  • 210520Z AUTO VRB04KT 4800 BR NCD 04/04 Q1012 NOSIG
  • 210450Z AUTO VRB02KT 9999 NCD 03/03 Q1012 NOSIG
  • 210420Z AUTO VRB02KT 6000 NCD 03/03 Q1012 TEMPO 4000 BR
  • 210350Z AUTO VRB02KT 9999 NCD 03/02 Q1011 NOSIG
  • 210320Z AUTO VRB02KT 9999 NCD 04/04 Q1011 NOSIG

TAF TAF EGPD
Valid from the 21 at 06:00 until the 22 at 06:00 UTC


210452Z 2106/2206 20007KT 9999 FEW035
PROB30
TEMPO 2106/2108 3000 BR
PROB40
TEMPO 2121/2206 21015G25KT
No reported NOTAMs for that airfield.



MET'MAP, your aeronautical weather chart ! - Copyright ORBIFLY December 2007 - Disclaimer

ORBIFLY MET'MAP TEAM :

Programming & Development : Alexandra Zaïnal
Concept & Development : Baudouin d'Aumeries
Co-Development & Prog : Marc-Olivier Méhu
Technical & hardware support : Manuel Goepfert

Contact : metmap@orbifly.com




SOURCES & CREDITS :

   NOAA